sensor_id;sensor_type;location;lat;lon;timestamp;P1;durP1;ratioP1;P2;durP2;ratioP2
13967;SDS011;39536;52.198;9.920;2022-08-07T00:01:25;2.47;;;2.20;;
13967;SDS011;39536;52.198;9.920;2022-08-07T00:03:52;2.60;;;2.40;;
13967;SDS011;39536;52.198;9.920;2022-08-07T00:06:19;4.53;;;2.50;;
13967;SDS011;39536;52.198;9.920;2022-08-07T00:08:45;2.50;;;2.30;;
13967;SDS011;39536;52.198;9.920;2022-08-07T00:11:12;2.33;;;2.23;;
13967;SDS011;39536;52.198;9.920;2022-08-07T00:13:39;2.80;;;2.47;;
13967;SDS011;39536;52.198;9.920;2022-08-07T00:16:08;3.90;;;2.17;;
13967;SDS011;39536;52.198;9.920;2022-08-07T00:18:37;2.20;;;2.10;;
13967;SDS011;39536;52.198;9.920;2022-08-07T00:21:05;2.67;;;2.47;;
13967;SDS011;39536;52.198;9.920;2022-08-07T00:23:34;3.97;;;2.60;;
13967;SDS011;39536;52.198;9.920;2022-08-07T00:26:02;3.00;;;2.70;;
13967;SDS011;39536;52.198;9.920;2022-08-07T00:28:30;3.20;;;3.00;;
13967;SDS011;39536;52.198;9.920;2022-08-07T00:30:57;3.00;;;2.40;;
13967;SDS011;39536;52.198;9.920;2022-08-07T00:33:24;5.00;;;2.63;;
13967;SDS011;39536;52.198;9.920;2022-08-07T00:35:54;2.87;;;2.67;;
13967;SDS011;39536;52.198;9.920;2022-08-07T00:38:20;3.20;;;2.60;;
13967;SDS011;39536;52.198;9.920;2022-08-07T00:40:48;2.67;;;2.47;;
13967;SDS011;39536;52.198;9.920;2022-08-07T00:43:15;2.87;;;2.43;;
13967;SDS011;39536;52.198;9.920;2022-08-07T00:45:42;2.90;;;2.60;;
13967;SDS011;39536;52.198;9.920;2022-08-07T00:48:09;2.83;;;2.63;;
13967;SDS011;39536;52.198;9.920;2022-08-07T00:50:36;6.47;;;3.00;;
13967;SDS011;39536;52.198;9.920;2022-08-07T00:53:05;7.60;;;2.67;;
13967;SDS011;39536;52.198;9.920;2022-08-07T00:55:32;4.33;;;3.40;;
13967;SDS011;39536;52.198;9.920;2022-08-07T00:57:59;3.97;;;3.57;;
13967;SDS011;39536;52.198;9.920;2022-08-07T01:00:26;3.20;;;2.90;;
13967;SDS011;39536;52.198;9.920;2022-08-07T01:02:52;3.10;;;2.90;;
13967;SDS011;39536;52.198;9.920;2022-08-07T01:05:19;3.53;;;3.33;;
13967;SDS011;39536;52.198;9.920;2022-08-07T01:07:46;3.53;;;3.23;;
13967;SDS011;39536;52.198;9.920;2022-08-07T01:10:14;4.07;;;3.67;;
13967;SDS011;39536;52.198;9.920;2022-08-07T01:12:42;3.60;;;3.30;;
13967;SDS011;39536;52.198;9.920;2022-08-07T01:15:09;3.40;;;3.20;;
13967;SDS011;39536;52.198;9.920;2022-08-07T01:17:36;3.47;;;3.17;;
13967;SDS011;39536;52.198;9.920;2022-08-07T01:26:50;3.97;;;3.57;;
13967;SDS011;39536;52.198;9.920;2022-08-07T01:29:17;4.00;;;3.70;;
13967;SDS011;39536;52.198;9.920;2022-08-07T01:31:44;3.80;;;3.50;;
13967;SDS011;39536;52.198;9.920;2022-08-07T01:34:10;4.07;;;3.77;;
13967;SDS011;39536;52.198;9.920;2022-08-07T01:36:38;4.00;;;3.60;;
13967;SDS011;39536;52.198;9.920;2022-08-07T01:39:05;4.00;;;3.70;;
13967;SDS011;39536;52.198;9.920;2022-08-07T01:41:31;3.90;;;3.50;;
13967;SDS011;39536;52.198;9.920;2022-08-07T01:44:00;4.20;;;3.50;;
13967;SDS011;39536;52.198;9.920;2022-08-07T01:46:27;3.60;;;3.33;;
13967;SDS011;39536;52.198;9.920;2022-08-07T01:48:54;3.73;;;3.43;;
13967;SDS011;39536;52.198;9.920;2022-08-07T01:51:21;3.07;;;2.87;;
13967;SDS011;39536;52.198;9.920;2022-08-07T01:53:50;3.50;;;3.30;;
13967;SDS011;39536;52.198;9.920;2022-08-07T01:56:21;3.50;;;3.20;;
13967;SDS011;39536;52.198;9.920;2022-08-07T01:58:51;3.87;;;3.57;;
13967;SDS011;39536;52.198;9.920;2022-08-07T02:01:21;3.77;;;3.57;;
13967;SDS011;39536;52.198;9.920;2022-08-07T02:03:57;3.47;;;3.27;;
13967;SDS011;39536;52.198;9.920;2022-08-07T02:06:28;3.83;;;3.47;;
13967;SDS011;39536;52.198;9.920;2022-08-07T02:08:58;3.83;;;3.53;;
13967;SDS011;39536;52.198;9.920;2022-08-07T02:11:27;3.83;;;3.53;;
13967;SDS011;39536;52.198;9.920;2022-08-07T02:13:55;4.03;;;3.73;;
13967;SDS011;39536;52.198;9.920;2022-08-07T02:16:25;4.80;;;3.90;;
13967;SDS011;39536;52.198;9.920;2022-08-07T02:18:53;3.87;;;3.57;;
13967;SDS011;39536;52.198;9.920;2022-08-07T02:21:21;4.53;;;4.07;;
13967;SDS011;39536;52.198;9.920;2022-08-07T02:23:49;4.13;;;3.83;;
13967;SDS011;39536;52.198;9.920;2022-08-07T02:26:17;3.43;;;3.23;;
13967;SDS011;39536;52.198;9.920;2022-08-07T02:28:45;4.10;;;3.70;;
13967;SDS011;39536;52.198;9.920;2022-08-07T02:31:13;4.30;;;4.00;;
13967;SDS011;39536;52.198;9.920;2022-08-07T02:33:42;3.73;;;3.53;;
13967;SDS011;39536;52.198;9.920;2022-08-07T02:36:09;5.00;;;3.23;;
13967;SDS011;39536;52.198;9.920;2022-08-07T02:38:37;3.73;;;3.43;;
13967;SDS011;39536;52.198;9.920;2022-08-07T02:41:05;4.47;;;3.97;;
13967;SDS011;39536;52.198;9.920;2022-08-07T02:43:33;4.20;;;3.43;;
13967;SDS011;39536;52.198;9.920;2022-08-07T02:46:01;5.07;;;4.27;;
13967;SDS011;39536;52.198;9.920;2022-08-07T02:48:30;3.93;;;3.60;;
13967;SDS011;39536;52.198;9.920;2022-08-07T02:50:58;4.17;;;3.83;;
13967;SDS011;39536;52.198;9.920;2022-08-07T02:53:31;4.30;;;4.00;;
13967;SDS011;39536;52.198;9.920;2022-08-07T02:55:59;3.50;;;3.30;;
13967;SDS011;39536;52.198;9.920;2022-08-07T02:58:29;3.97;;;3.77;;
13967;SDS011;39536;52.198;9.920;2022-08-07T03:00:58;3.93;;;3.73;;
13967;SDS011;39536;52.198;9.920;2022-08-07T03:03:25;4.17;;;3.30;;
13967;SDS011;39536;52.198;9.920;2022-08-07T03:05:55;5.90;;;4.17;;
13967;SDS011;39536;52.198;9.920;2022-08-07T03:08:24;3.60;;;3.40;;
13967;SDS011;39536;52.198;9.920;2022-08-07T03:10:51;3.73;;;3.53;;
13967;SDS011;39536;52.198;9.920;2022-08-07T03:13:19;4.37;;;3.97;;
13967;SDS011;39536;52.198;9.920;2022-08-07T03:15:46;4.00;;;3.70;;
13967;SDS011;39536;52.198;9.920;2022-08-07T03:18:14;4.67;;;4.27;;
13967;SDS011;39536;52.198;9.920;2022-08-07T03:20:42;4.03;;;3.83;;
13967;SDS011;39536;52.198;9.920;2022-08-07T03:23:11;4.50;;;4.20;;
13967;SDS011;39536;52.198;9.920;2022-08-07T03:25:38;3.87;;;3.63;;
13967;SDS011;39536;52.198;9.920;2022-08-07T03:28:07;4.07;;;3.77;;
13967;SDS011;39536;52.198;9.920;2022-08-07T03:30:37;4.53;;;4.20;;
13967;SDS011;39536;52.198;9.920;2022-08-07T03:33:05;4.07;;;3.77;;
13967;SDS011;39536;52.198;9.920;2022-08-07T03:35:34;3.67;;;3.47;;
13967;SDS011;39536;52.198;9.920;2022-08-07T03:38:02;3.83;;;3.57;;
13967;SDS011;39536;52.198;9.920;2022-08-07T03:40:33;4.33;;;4.03;;
13967;SDS011;39536;52.198;9.920;2022-08-07T03:43:01;3.97;;;3.77;;
13967;SDS011;39536;52.198;9.920;2022-08-07T03:45:31;4.40;;;4.10;;
13967;SDS011;39536;52.198;9.920;2022-08-07T03:47:58;4.67;;;4.37;;
13967;SDS011;39536;52.198;9.920;2022-08-07T03:50:26;4.57;;;4.27;;
13967;SDS011;39536;52.198;9.920;2022-08-07T03:52:55;4.80;;;4.00;;
13967;SDS011;39536;52.198;9.920;2022-08-07T03:55:24;5.03;;;4.73;;
13967;SDS011;39536;52.198;9.920;2022-08-07T03:57:53;4.83;;;4.53;;
13967;SDS011;39536;52.198;9.920;2022-08-07T04:00:21;5.30;;;4.80;;
13967;SDS011;39536;52.198;9.920;2022-08-07T04:02:49;4.83;;;4.53;;
13967;SDS011;39536;52.198;9.920;2022-08-07T04:05:18;4.63;;;4.23;;
13967;SDS011;39536;52.198;9.920;2022-08-07T04:07:46;4.63;;;4.33;;
13967;SDS011;39536;52.198;9.920;2022-08-07T04:10:12;5.07;;;4.67;;
13967;SDS011;39536;52.198;9.920;2022-08-07T04:12:39;4.70;;;4.30;;
13967;SDS011;39536;52.198;9.920;2022-08-07T04:15:08;4.47;;;4.17;;
13967;SDS011;39536;52.198;9.920;2022-08-07T04:17:37;4.47;;;4.10;;
13967;SDS011;39536;52.198;9.920;2022-08-07T04:20:05;5.03;;;4.63;;
13967;SDS011;39536;52.198;9.920;2022-08-07T04:22:34;4.30;;;4.00;;
13967;SDS011;39536;52.198;9.920;2022-08-07T04:25:02;6.10;;;4.50;;
13967;SDS011;39536;52.198;9.920;2022-08-07T04:27:29;4.70;;;4.40;;
13967;SDS011;39536;52.198;9.920;2022-08-07T04:29:56;5.07;;;4.63;;
13967;SDS011;39536;52.198;9.920;2022-08-07T04:32:24;5.47;;;5.07;;
13967;SDS011;39536;52.198;9.920;2022-08-07T04:34:52;5.90;;;5.50;;
13967;SDS011;39536;52.198;9.920;2022-08-07T04:37:19;6.33;;;5.93;;
13967;SDS011;39536;52.198;9.920;2022-08-07T04:39:46;5.40;;;5.10;;
13967;SDS011;39536;52.198;9.920;2022-08-07T04:42:12;5.17;;;4.87;;
13967;SDS011;39536;52.198;9.920;2022-08-07T04:44:39;4.53;;;4.17;;
13967;SDS011;39536;52.198;9.920;2022-08-07T04:47:07;5.00;;;4.67;;
13967;SDS011;39536;52.198;9.920;2022-08-07T04:49:43;4.90;;;4.33;;
13967;SDS011;39536;52.198;9.920;2022-08-07T04:52:17;5.13;;;4.77;;
13967;SDS011;39536;52.198;9.920;2022-08-07T04:54:56;4.20;;;3.90;;
13967;SDS011;39536;52.198;9.920;2022-08-07T04:57:28;5.17;;;4.80;;
13967;SDS011;39536;52.198;9.920;2022-08-07T05:00:03;4.57;;;4.17;;
13967;SDS011;39536;52.198;9.920;2022-08-07T05:02:34;4.80;;;4.33;;
13967;SDS011;39536;52.198;9.920;2022-08-07T05:05:16;4.57;;;4.27;;
13967;SDS011;39536;52.198;9.920;2022-08-07T05:07:47;4.37;;;3.97;;
13967;SDS011;39536;52.198;9.920;2022-08-07T05:10:22;4.37;;;3.97;;
13967;SDS011;39536;52.198;9.920;2022-08-07T05:12:52;4.00;;;3.70;;
13967;SDS011;39536;52.198;9.920;2022-08-07T05:15:23;4.80;;;3.97;;
13967;SDS011;39536;52.198;9.920;2022-08-07T05:17:52;4.30;;;4.00;;
13967;SDS011;39536;52.198;9.920;2022-08-07T05:20:25;4.10;;;3.87;;
13967;SDS011;39536;52.198;9.920;2022-08-07T05:22:56;4.47;;;4.13;;
13967;SDS011;39536;52.198;9.920;2022-08-07T05:25:29;4.77;;;4.30;;
13967;SDS011;39536;52.198;9.920;2022-08-07T05:27:57;4.43;;;4.07;;
13967;SDS011;39536;52.198;9.920;2022-08-07T05:30:25;4.37;;;4.07;;
13967;SDS011;39536;52.198;9.920;2022-08-07T05:32:53;4.90;;;4.50;;
13967;SDS011;39536;52.198;9.920;2022-08-07T05:35:20;4.50;;;4.20;;
13967;SDS011;39536;52.198;9.920;2022-08-07T05:37:50;4.53;;;4.23;;
13967;SDS011;39536;52.198;9.920;2022-08-07T05:40:17;4.47;;;4.07;;
13967;SDS011;39536;52.198;9.920;2022-08-07T05:42:45;4.43;;;4.13;;
13967;SDS011;39536;52.198;9.920;2022-08-07T05:45:12;4.70;;;4.30;;
13967;SDS011;39536;52.198;9.920;2022-08-07T05:47:40;5.20;;;4.53;;
13967;SDS011;39536;52.198;9.920;2022-08-07T05:50:07;4.87;;;4.47;;
13967;SDS011;39536;52.198;9.920;2022-08-07T05:52:35;4.80;;;4.40;;
13967;SDS011;39536;52.198;9.920;2022-08-07T05:55:03;5.23;;;4.70;;
13967;SDS011;39536;52.198;9.920;2022-08-07T05:57:30;4.77;;;4.37;;
13967;SDS011;39536;52.198;9.920;2022-08-07T05:59:58;5.20;;;4.90;;
13967;SDS011;39536;52.198;9.920;2022-08-07T06:02:27;6.13;;;5.53;;
13967;SDS011;39536;52.198;9.920;2022-08-07T06:04:56;5.40;;;4.93;;
13967;SDS011;39536;52.198;9.920;2022-08-07T06:07:27;5.50;;;5.10;;
13967;SDS011;39536;52.198;9.920;2022-08-07T06:09:54;5.43;;;5.03;;
13967;SDS011;39536;52.198;9.920;2022-08-07T06:12:22;5.67;;;5.27;;
13967;SDS011;39536;52.198;9.920;2022-08-07T06:14:49;5.50;;;5.10;;
13967;SDS011;39536;52.198;9.920;2022-08-07T06:17:16;5.30;;;5.00;;
13967;SDS011;39536;52.198;9.920;2022-08-07T06:19:44;6.03;;;5.63;;
13967;SDS011;39536;52.198;9.920;2022-08-07T06:22:12;6.10;;;5.60;;
13967;SDS011;39536;52.198;9.920;2022-08-07T06:24:39;5.57;;;5.13;;
13967;SDS011;39536;52.198;9.920;2022-08-07T06:27:06;6.03;;;5.50;;
13967;SDS011;39536;52.198;9.920;2022-08-07T06:29:34;5.60;;;5.10;;
13967;SDS011;39536;52.198;9.920;2022-08-07T06:32:01;5.50;;;5.10;;
13967;SDS011;39536;52.198;9.920;2022-08-07T06:34:27;5.97;;;5.40;;
13967;SDS011;39536;52.198;9.920;2022-08-07T06:36:54;5.03;;;4.67;;
13967;SDS011;39536;52.198;9.920;2022-08-07T06:39:20;6.20;;;5.67;;
13967;SDS011;39536;52.198;9.920;2022-08-07T06:41:48;5.90;;;5.40;;
13967;SDS011;39536;52.198;9.920;2022-08-07T06:44:22;5.37;;;4.90;;
13967;SDS011;39536;52.198;9.920;2022-08-07T06:46:52;5.80;;;5.37;;
13967;SDS011;39536;52.198;9.920;2022-08-07T06:49:19;6.73;;;5.50;;
13967;SDS011;39536;52.198;9.920;2022-08-07T06:51:46;5.67;;;5.17;;
13967;SDS011;39536;52.198;9.920;2022-08-07T06:54:14;5.97;;;5.47;;
13967;SDS011;39536;52.198;9.920;2022-08-07T06:56:43;6.30;;;5.70;;
13967;SDS011;39536;52.198;9.920;2022-08-07T06:59:12;6.03;;;5.63;;
13967;SDS011;39536;52.198;9.920;2022-08-07T07:01:41;6.83;;;6.30;;
13967;SDS011;39536;52.198;9.920;2022-08-07T07:04:10;7.30;;;5.80;;
13967;SDS011;39536;52.198;9.920;2022-08-07T07:06:38;6.53;;;5.40;;
13967;SDS011;39536;52.198;9.920;2022-08-07T07:09:18;8.80;;;6.00;;
13967;SDS011;39536;52.198;9.920;2022-08-07T07:11:49;16.03;;;5.60;;
13967;SDS011;39536;52.198;9.920;2022-08-07T07:14:23;6.40;;;5.80;;
13967;SDS011;39536;52.198;9.920;2022-08-07T07:16:53;5.40;;;5.00;;
13967;SDS011;39536;52.198;9.920;2022-08-07T07:19:26;5.43;;;5.00;;
13967;SDS011;39536;52.198;9.920;2022-08-07T07:21:55;6.17;;;5.63;;
13967;SDS011;39536;52.198;9.920;2022-08-07T07:24:23;5.67;;;5.10;;
13967;SDS011;39536;52.198;9.920;2022-08-07T07:26:50;5.47;;;5.03;;
13967;SDS011;39536;52.198;9.920;2022-08-07T07:29:22;6.43;;;5.60;;
13967;SDS011;39536;52.198;9.920;2022-08-07T07:31:53;7.43;;;5.83;;
13967;SDS011;39536;52.198;9.920;2022-08-07T07:34:21;6.87;;;6.17;;
13967;SDS011;39536;52.198;9.920;2022-08-07T07:36:53;11.57;;;6.07;;
13967;SDS011;39536;52.198;9.920;2022-08-07T07:39:21;5.70;;;5.30;;
13967;SDS011;39536;52.198;9.920;2022-08-07T07:41:50;7.53;;;5.63;;
13967;SDS011;39536;52.198;9.920;2022-08-07T07:44:17;6.23;;;5.67;;
13967;SDS011;39536;52.198;9.920;2022-08-07T07:46:47;8.17;;;5.20;;
13967;SDS011;39536;52.198;9.920;2022-08-07T07:49:16;5.27;;;4.97;;
13967;SDS011;39536;52.198;9.920;2022-08-07T07:51:45;6.90;;;4.60;;
13967;SDS011;39536;52.198;9.920;2022-08-07T07:54:15;5.53;;;5.03;;
13967;SDS011;39536;52.198;9.920;2022-08-07T07:56:43;6.33;;;4.40;;
13967;SDS011;39536;52.198;9.920;2022-08-07T07:59:11;8.27;;;4.00;;
13967;SDS011;39536;52.198;9.920;2022-08-07T08:01:41;5.33;;;4.87;;
13967;SDS011;39536;52.198;9.920;2022-08-07T08:04:09;4.70;;;4.23;;
13967;SDS011;39536;52.198;9.920;2022-08-07T08:06:38;4.23;;;3.93;;
13967;SDS011;39536;52.198;9.920;2022-08-07T08:09:08;4.40;;;4.10;;
13967;SDS011;39536;52.198;9.920;2022-08-07T08:11:38;4.37;;;4.00;;
13967;SDS011;39536;52.198;9.920;2022-08-07T08:14:05;4.23;;;3.93;;
13967;SDS011;39536;52.198;9.920;2022-08-07T08:16:33;5.63;;;4.80;;
13967;SDS011;39536;52.198;9.920;2022-08-07T08:19:03;4.63;;;4.20;;
13967;SDS011;39536;52.198;9.920;2022-08-07T08:21:32;4.70;;;4.30;;
13967;SDS011;39536;52.198;9.920;2022-08-07T08:24:17;4.53;;;4.13;;
13967;SDS011;39536;52.198;9.920;2022-08-07T08:27:03;4.87;;;4.43;;
13967;SDS011;39536;52.198;9.920;2022-08-07T08:29:35;4.27;;;3.97;;
13967;SDS011;39536;52.198;9.920;2022-08-07T08:32:07;4.30;;;3.90;;
13967;SDS011;39536;52.198;9.920;2022-08-07T08:34:35;3.87;;;3.57;;
13967;SDS011;39536;52.198;9.920;2022-08-07T08:37:05;4.37;;;3.97;;
13967;SDS011;39536;52.198;9.920;2022-08-07T08:39:34;3.87;;;3.57;;
13967;SDS011;39536;52.198;9.920;2022-08-07T08:42:03;3.50;;;3.30;;
13967;SDS011;39536;52.198;9.920;2022-08-07T08:44:38;6.10;;;3.77;;
13967;SDS011;39536;52.198;9.920;2022-08-07T08:47:11;5.40;;;3.50;;
13967;SDS011;39536;52.198;9.920;2022-08-07T08:49:48;3.77;;;3.47;;
13967;SDS011;39536;52.198;9.920;2022-08-07T08:52:24;3.40;;;3.10;;
13967;SDS011;39536;52.198;9.920;2022-08-07T08:54:54;4.00;;;2.87;;
13967;SDS011;39536;52.198;9.920;2022-08-07T08:57:27;3.60;;;3.30;;
13967;SDS011;39536;52.198;9.920;2022-08-07T09:00:00;3.60;;;3.30;;
13967;SDS011;39536;52.198;9.920;2022-08-07T09:02:30;3.70;;;3.40;;
13967;SDS011;39536;52.198;9.920;2022-08-07T09:05:11;3.17;;;2.87;;
13967;SDS011;39536;52.198;9.920;2022-08-07T09:07:46;3.00;;;2.80;;
13967;SDS011;39536;52.198;9.920;2022-08-07T09:10:20;3.13;;;2.87;;
13967;SDS011;39536;52.198;9.920;2022-08-07T09:12:52;2.70;;;2.57;;
13967;SDS011;39536;52.198;9.920;2022-08-07T09:15:35;3.10;;;2.80;;
13967;SDS011;39536;52.198;9.920;2022-08-07T09:18:09;2.93;;;2.73;;
13967;SDS011;39536;52.198;9.920;2022-08-07T09:20:45;2.53;;;2.33;;
13967;SDS011;39536;52.198;9.920;2022-08-07T09:23:22;2.43;;;2.23;;
13967;SDS011;39536;52.198;9.920;2022-08-07T09:26:00;2.80;;;2.10;;
13967;SDS011;39536;52.198;9.920;2022-08-07T09:28:41;2.27;;;1.73;;
13967;SDS011;39536;52.198;9.920;2022-08-07T09:31:14;1.77;;;1.67;;
13967;SDS011;39536;52.198;9.920;2022-08-07T09:33:56;1.80;;;1.70;;
13967;SDS011;39536;52.198;9.920;2022-08-07T09:36:32;1.50;;;1.40;;
13967;SDS011;39536;52.198;9.920;2022-08-07T09:39:02;2.60;;;1.90;;
13967;SDS011;39536;52.198;9.920;2022-08-07T09:41:43;1.60;;;0.90;;
13967;SDS011;39536;52.198;9.920;2022-08-07T09:44:20;1.57;;;1.27;;
13967;SDS011;39536;52.198;9.920;2022-08-07T09:47:02;1.80;;;1.70;;
13967;SDS011;39536;52.198;9.920;2022-08-07T09:49:40;2.43;;;2.07;;
13967;SDS011;39536;52.198;9.920;2022-08-07T09:52:15;1.90;;;1.80;;
13967;SDS011;39536;52.198;9.920;2022-08-07T09:54:51;2.73;;;1.63;;
13967;SDS011;39536;52.198;9.920;2022-08-07T10:00:23;1.80;;;1.70;;
13967;SDS011;39536;52.198;9.920;2022-08-07T10:03:06;2.27;;;1.70;;
13967;SDS011;39536;52.198;9.920;2022-08-07T10:05:53;2.17;;;1.70;;
13967;SDS011;39536;52.198;9.920;2022-08-07T10:11:43;2.00;;;1.80;;
13967;SDS011;39536;52.198;9.920;2022-08-07T10:14:30;1.80;;;1.70;;
13967;SDS011;39536;52.198;9.920;2022-08-07T10:17:22;1.60;;;1.50;;
13967;SDS011;39536;52.198;9.920;2022-08-07T10:20:10;1.97;;;1.87;;
13967;SDS011;39536;52.198;9.920;2022-08-07T10:25:38;1.50;;;1.40;;
13967;SDS011;39536;52.198;9.920;2022-08-07T10:28:26;1.60;;;1.50;;
13967;SDS011;39536;52.198;9.920;2022-08-07T10:31:13;2.07;;;1.57;;
13967;SDS011;39536;52.198;9.920;2022-08-07T10:33:59;1.77;;;1.67;;
13967;SDS011;39536;52.198;9.920;2022-08-07T10:36:47;1.53;;;1.43;;
13967;SDS011;39536;52.198;9.920;2022-08-07T10:39:32;1.20;;;1.20;;
13967;SDS011;39536;52.198;9.920;2022-08-07T10:42:10;5.50;;;1.10;;
13967;SDS011;39536;52.198;9.920;2022-08-07T10:44:51;1.33;;;1.20;;
13967;SDS011;39536;52.198;9.920;2022-08-07T10:47:28;1.30;;;1.23;;
13967;SDS011;39536;52.198;9.920;2022-08-07T10:50:04;2.07;;;1.10;;
13967;SDS011;39536;52.198;9.920;2022-08-07T10:52:36;1.00;;;1.00;;
13967;SDS011;39536;52.198;9.920;2022-08-07T10:55:13;1.33;;;1.23;;
13967;SDS011;39536;52.198;9.920;2022-08-07T10:57:45;1.47;;;1.03;;
13967;SDS011;39536;52.198;9.920;2022-08-07T11:00:21;1.27;;;1.27;;
13967;SDS011;39536;52.198;9.920;2022-08-07T11:02:55;1.30;;;1.20;;
13967;SDS011;39536;52.198;9.920;2022-08-07T11:05:31;1.13;;;1.10;;
13967;SDS011;39536;52.198;9.920;2022-08-07T11:08:09;1.60;;;1.50;;
13967;SDS011;39536;52.198;9.920;2022-08-07T11:10:42;1.20;;;1.10;;
13967;SDS011;39536;52.198;9.920;2022-08-07T11:13:15;1.30;;;1.30;;
13967;SDS011;39536;52.198;9.920;2022-08-07T11:15:47;1.20;;;1.10;;
13967;SDS011;39536;52.198;9.920;2022-08-07T11:18:18;1.30;;;1.30;;
13967;SDS011;39536;52.198;9.920;2022-08-07T11:20:54;1.47;;;1.37;;
13967;SDS011;39536;52.198;9.920;2022-08-07T11:23:29;1.40;;;1.27;;
13967;SDS011;39536;52.198;9.920;2022-08-07T11:26:07;1.70;;;1.50;;
13967;SDS011;39536;52.198;9.920;2022-08-07T11:28:39;1.40;;;1.30;;
13967;SDS011;39536;52.198;9.920;2022-08-07T11:31:18;1.80;;;1.33;;
13967;SDS011;39536;52.198;9.920;2022-08-07T11:33:50;1.23;;;1.10;;
13967;SDS011;39536;52.198;9.920;2022-08-07T11:36:29;1.10;;;1.00;;
13967;SDS011;39536;52.198;9.920;2022-08-07T11:39:05;1.70;;;1.60;;
13967;SDS011;39536;52.198;9.920;2022-08-07T11:41:41;1.50;;;1.40;;
13967;SDS011;39536;52.198;9.920;2022-08-07T11:44:16;1.43;;;1.30;;
13967;SDS011;39536;52.198;9.920;2022-08-07T11:46:51;1.23;;;1.10;;
13967;SDS011;39536;52.198;9.920;2022-08-07T11:49:40;1.33;;;1.23;;
13967;SDS011;39536;52.198;9.920;2022-08-07T11:52:37;0.90;;;0.90;;
13967;SDS011;39536;52.198;9.920;2022-08-07T11:55:11;3.47;;;1.30;;
13967;SDS011;39536;52.198;9.920;2022-08-07T11:57:52;1.10;;;1.10;;
13967;SDS011;39536;52.198;9.920;2022-08-07T12:00:29;2.17;;;1.40;;
13967;SDS011;39536;52.198;9.920;2022-08-07T12:03:10;1.17;;;1.10;;
13967;SDS011;39536;52.198;9.920;2022-08-07T12:05:54;1.30;;;1.30;;
13967;SDS011;39536;52.198;9.920;2022-08-07T12:08:39;1.80;;;1.50;;
13967;SDS011;39536;52.198;9.920;2022-08-07T12:11:21;1.50;;;1.27;;
13967;SDS011;39536;52.198;9.920;2022-08-07T12:13:51;1.70;;;1.37;;
13967;SDS011;39536;52.198;9.920;2022-08-07T12:16:24;1.43;;;1.33;;
13967;SDS011;39536;52.198;9.920;2022-08-07T12:18:54;2.70;;;1.10;;
13967;SDS011;39536;52.198;9.920;2022-08-07T12:21:34;4.57;;;1.50;;
13967;SDS011;39536;52.198;9.920;2022-08-07T12:24:13;2.50;;;1.40;;
13967;SDS011;39536;52.198;9.920;2022-08-07T12:26:46;1.10;;;1.10;;
13967;SDS011;39536;52.198;9.920;2022-08-07T12:29:19;1.83;;;1.40;;
13967;SDS011;39536;52.198;9.920;2022-08-07T12:31:56;1.43;;;1.20;;
13967;SDS011;39536;52.198;9.920;2022-08-07T12:34:28;1.50;;;1.40;;
13967;SDS011;39536;52.198;9.920;2022-08-07T12:36:57;1.60;;;1.50;;
13967;SDS011;39536;52.198;9.920;2022-08-07T12:39:27;0.80;;;0.80;;
13967;SDS011;39536;52.198;9.920;2022-08-07T12:41:55;1.20;;;1.10;;
13967;SDS011;39536;52.198;9.920;2022-08-07T12:44:24;2.23;;;1.40;;
13967;SDS011;39536;52.198;9.920;2022-08-07T12:46:56;1.40;;;1.30;;
13967;SDS011;39536;52.198;9.920;2022-08-07T12:49:36;1.40;;;1.30;;
13967;SDS011;39536;52.198;9.920;2022-08-07T12:52:13;1.63;;;1.20;;
13967;SDS011;39536;52.198;9.920;2022-08-07T12:54:50;1.10;;;1.10;;
13967;SDS011;39536;52.198;9.920;2022-08-07T12:57:24;0.90;;;0.90;;
13967;SDS011;39536;52.198;9.920;2022-08-07T12:59:55;1.23;;;1.00;;
13967;SDS011;39536;52.198;9.920;2022-08-07T13:02:28;1.23;;;1.13;;
13967;SDS011;39536;52.198;9.920;2022-08-07T13:05:16;1.00;;;1.00;;
13967;SDS011;39536;52.198;9.920;2022-08-07T13:07:57;1.00;;;1.00;;
13967;SDS011;39536;52.198;9.920;2022-08-07T13:10:37;1.20;;;1.20;;
13967;SDS011;39536;52.198;9.920;2022-08-07T13:13:12;1.10;;;0.90;;
13967;SDS011;39536;52.198;9.920;2022-08-07T13:15:49;1.70;;;1.10;;
13967;SDS011;39536;52.198;9.920;2022-08-07T13:18:26;0.83;;;0.83;;
13967;SDS011;39536;52.198;9.920;2022-08-07T13:21:00;1.23;;;1.13;;
13967;SDS011;39536;52.198;9.920;2022-08-07T13:23:33;1.03;;;0.90;;
13967;SDS011;39536;52.198;9.920;2022-08-07T13:26:10;1.83;;;1.07;;
13967;SDS011;39536;52.198;9.920;2022-08-07T13:28:43;1.83;;;1.10;;
13967;SDS011;39536;52.198;9.920;2022-08-07T13:31:15;1.10;;;0.90;;
13967;SDS011;39536;52.198;9.920;2022-08-07T13:33:46;0.97;;;0.90;;
13967;SDS011;39536;52.198;9.920;2022-08-07T13:36:18;1.27;;;1.17;;
13967;SDS011;39536;52.198;9.920;2022-08-07T13:38:49;0.83;;;0.83;;
13967;SDS011;39536;52.198;9.920;2022-08-07T13:41:26;1.00;;;1.00;;
13967;SDS011;39536;52.198;9.920;2022-08-07T13:44:00;1.10;;;1.10;;
13967;SDS011;39536;52.198;9.920;2022-08-07T13:46:29;1.27;;;1.20;;
13967;SDS011;39536;52.198;9.920;2022-08-07T13:48:58;2.00;;;1.70;;
13967;SDS011;39536;52.198;9.920;2022-08-07T13:51:27;1.73;;;1.23;;
13967;SDS011;39536;52.198;9.920;2022-08-07T13:53:55;1.53;;;1.30;;
13967;SDS011;39536;52.198;9.920;2022-08-07T13:56:26;1.10;;;1.10;;
13967;SDS011;39536;52.198;9.920;2022-08-07T13:58:54;1.10;;;0.90;;
13967;SDS011;39536;52.198;9.920;2022-08-07T14:01:26;1.10;;;1.10;;
13967;SDS011;39536;52.198;9.920;2022-08-07T14:03:54;0.97;;;0.90;;
13967;SDS011;39536;52.198;9.920;2022-08-07T14:06:22;2.67;;;1.30;;
13967;SDS011;39536;52.198;9.920;2022-08-07T14:08:56;1.43;;;1.30;;
13967;SDS011;39536;52.198;9.920;2022-08-07T14:11:23;1.57;;;1.10;;
13967;SDS011;39536;52.198;9.920;2022-08-07T14:13:55;1.13;;;1.00;;
13967;SDS011;39536;52.198;9.920;2022-08-07T14:16:29;0.97;;;0.97;;
13967;SDS011;39536;52.198;9.920;2022-08-07T14:18:59;1.30;;;1.20;;
13967;SDS011;39536;52.198;9.920;2022-08-07T14:21:31;1.30;;;1.20;;
13967;SDS011;39536;52.198;9.920;2022-08-07T14:24:00;1.57;;;1.10;;
13967;SDS011;39536;52.198;9.920;2022-08-07T14:26:34;0.90;;;0.90;;
13967;SDS011;39536;52.198;9.920;2022-08-07T14:29:09;1.10;;;1.10;;
13967;SDS011;39536;52.198;9.920;2022-08-07T14:31:38;1.30;;;1.20;;
13967;SDS011;39536;52.198;9.920;2022-08-07T14:34:06;1.20;;;1.10;;
13967;SDS011;39536;52.198;9.920;2022-08-07T14:36:33;1.37;;;1.27;;
13967;SDS011;39536;52.198;9.920;2022-08-07T14:39:00;1.00;;;1.00;;
13967;SDS011;39536;52.198;9.920;2022-08-07T14:41:28;0.90;;;0.90;;
13967;SDS011;39536;52.198;9.920;2022-08-07T14:43:57;2.47;;;1.27;;
13967;SDS011;39536;52.198;9.920;2022-08-07T14:46:28;1.10;;;1.00;;
13967;SDS011;39536;52.198;9.920;2022-08-07T14:48:57;1.30;;;1.20;;
13967;SDS011;39536;52.198;9.920;2022-08-07T14:51:25;1.00;;;0.90;;
13967;SDS011;39536;52.198;9.920;2022-08-07T14:53:55;1.47;;;1.10;;
13967;SDS011;39536;52.198;9.920;2022-08-07T14:56:25;0.87;;;0.87;;
13967;SDS011;39536;52.198;9.920;2022-08-07T14:58:55;1.30;;;1.20;;
13967;SDS011;39536;52.198;9.920;2022-08-07T15:01:26;0.80;;;0.80;;
13967;SDS011;39536;52.198;9.920;2022-08-07T15:03:58;1.37;;;1.10;;
13967;SDS011;39536;52.198;9.920;2022-08-07T15:06:26;1.13;;;1.10;;
13967;SDS011;39536;52.198;9.920;2022-08-07T15:09:00;1.30;;;1.20;;
13967;SDS011;39536;52.198;9.920;2022-08-07T15:11:29;2.10;;;1.63;;
13967;SDS011;39536;52.198;9.920;2022-08-07T15:13:59;1.13;;;1.13;;
13967;SDS011;39536;52.198;9.920;2022-08-07T15:16:34;0.90;;;0.90;;
13967;SDS011;39536;52.198;9.920;2022-08-07T15:19:04;5.40;;;1.27;;
13967;SDS011;39536;52.198;9.920;2022-08-07T15:21:35;1.30;;;1.17;;
13967;SDS011;39536;52.198;9.920;2022-08-07T15:24:03;1.30;;;1.20;;
13967;SDS011;39536;52.198;9.920;2022-08-07T15:26:35;1.23;;;1.10;;
13967;SDS011;39536;52.198;9.920;2022-08-07T15:29:05;0.87;;;0.87;;